sensor_id;sensor_type;location;lat;lon;timestamp;pressure;altitude;pressure_sealevel;temperature;humidity
52653;BME280;39353;42.864;12.014;2023-02-24T00:01:44;97446.00;;;23.53;48.94
52653;BME280;39353;42.864;12.014;2023-02-24T00:07:12;97442.29;;;23.45;48.98
52653;BME280;39353;42.864;12.014;2023-02-24T00:09:53;97438.14;;;23.42;49.00
52653;BME280;39353;42.864;12.014;2023-02-24T00:12:34;97439.14;;;23.40;49.11
52653;BME280;39353;42.864;12.014;2023-02-24T00:15:02;97437.17;;;23.37;49.32
52653;BME280;39353;42.864;12.014;2023-02-24T00:17:30;97439.08;;;23.34;49.27
52653;BME280;39353;42.864;12.014;2023-02-24T00:20:12;97435.73;;;23.31;49.31
52653;BME280;39353;42.864;12.014;2023-02-24T00:22:39;97431.67;;;23.28;49.30
52653;BME280;39353;42.864;12.014;2023-02-24T00:25:21;97430.95;;;23.24;49.35
52653;BME280;39353;42.864;12.014;2023-02-24T00:27:48;97431.04;;;23.21;49.41
52653;BME280;39353;42.864;12.014;2023-02-24T00:30:30;97436.76;;;23.18;49.32
52653;BME280;39353;42.864;12.014;2023-02-24T00:33:12;97435.79;;;23.15;49.48
52653;BME280;39353;42.864;12.014;2023-02-24T00:35:39;97439.19;;;23.13;49.53
52653;BME280;39353;42.864;12.014;2023-02-24T00:38:06;97436.94;;;23.11;49.46
52653;BME280;39353;42.864;12.014;2023-02-24T00:40:34;97432.11;;;23.07;49.68
52653;BME280;39353;42.864;12.014;2023-02-24T00:43:03;97436.02;;;23.05;49.67
52653;BME280;39353;42.864;12.014;2023-02-24T00:45:47;97434.56;;;23.03;49.63
52653;BME280;39353;42.864;12.014;2023-02-24T00:48:31;97436.55;;;23.01;49.75
52653;BME280;39353;42.864;12.014;2023-02-24T00:50:59;97432.28;;;22.99;49.59
52653;BME280;39353;42.864;12.014;2023-02-24T00:53:30;97429.42;;;22.96;49.78
52653;BME280;39353;42.864;12.014;2023-02-24T00:56:13;97428.66;;;22.94;49.79
52653;BME280;39353;42.864;12.014;2023-02-24T00:58:58;97423.15;;;22.92;49.86
52653;BME280;39353;42.864;12.014;2023-02-24T01:01:41;97416.11;;;22.90;49.68
52653;BME280;39353;42.864;12.014;2023-02-24T01:04:12;97410.63;;;22.89;49.91
52653;BME280;39353;42.864;12.014;2023-02-24T01:06:46;97407.58;;;22.87;49.93
52653;BME280;39353;42.864;12.014;2023-02-24T01:09:17;97400.02;;;22.85;49.85
52653;BME280;39353;42.864;12.014;2023-02-24T01:11:58;97401.80;;;22.83;49.98
52653;BME280;39353;42.864;12.014;2023-02-24T01:15:25;97400.71;;;22.81;50.02
52653;BME280;39353;42.864;12.014;2023-02-24T01:18:06;97394.48;;;22.79;50.10
52653;BME280;39353;42.864;12.014;2023-02-24T01:20:37;97396.46;;;22.76;50.06
52653;BME280;39353;42.864;12.014;2023-02-24T01:23:20;97390.30;;;22.75;50.23
52653;BME280;39353;42.864;12.014;2023-02-24T01:25:47;97391.09;;;22.73;50.06
52653;BME280;39353;42.864;12.014;2023-02-24T01:28:28;97388.41;;;22.71;50.12
52653;BME280;39353;42.864;12.014;2023-02-24T01:31:00;97386.48;;;22.70;50.16
52653;BME280;39353;42.864;12.014;2023-02-24T01:33:28;97384.23;;;22.68;50.24
52653;BME280;39353;42.864;12.014;2023-02-24T01:36:11;97379.90;;;22.67;50.26
52653;BME280;39353;42.864;12.014;2023-02-24T01:38:39;97369.36;;;22.65;50.33
52653;BME280;39353;42.864;12.014;2023-02-24T01:41:16;97364.95;;;22.63;50.34
52653;BME280;39353;42.864;12.014;2023-02-24T01:44:05;97362.06;;;22.60;50.31
52653;BME280;39353;42.864;12.014;2023-02-24T01:46:38;97363.44;;;22.59;50.30
52653;BME280;39353;42.864;12.014;2023-02-24T01:49:08;97365.15;;;22.57;50.34
52653;BME280;39353;42.864;12.014;2023-02-24T01:51:42;97364.81;;;22.57;50.36
52653;BME280;39353;42.864;12.014;2023-02-24T01:54:13;97364.17;;;22.55;50.38
52653;BME280;39353;42.864;12.014;2023-02-24T01:56:46;97358.26;;;22.55;50.39
52653;BME280;39353;42.864;12.014;2023-02-24T01:59:29;97358.08;;;22.54;50.23
52653;BME280;39353;42.864;12.014;2023-02-24T02:02:12;97356.58;;;22.53;50.38
52653;BME280;39353;42.864;12.014;2023-02-24T02:05:02;97358.41;;;22.51;50.34
52653;BME280;39353;42.864;12.014;2023-02-24T02:07:45;97360.34;;;22.50;50.18
52653;BME280;39353;42.864;12.014;2023-02-24T02:10:26;97360.36;;;22.48;50.42
52653;BME280;39353;42.864;12.014;2023-02-24T02:13:15;97362.32;;;22.47;50.27
52653;BME280;39353;42.864;12.014;2023-02-24T02:16:37;97354.35;;;22.45;50.39
52653;BME280;39353;42.864;12.014;2023-02-24T02:22:03;97355.69;;;22.44;50.42
52653;BME280;39353;42.864;12.014;2023-02-24T02:33:16;97344.46;;;22.38;50.48
52653;BME280;39353;42.864;12.014;2023-02-24T02:36:10;97338.86;;;22.36;50.63
52653;BME280;39353;42.864;12.014;2023-02-24T02:41:48;97333.73;;;22.34;50.36
